createdAt,value
2019-01-19T00:01:56.182Z,12.90
2019-01-19T00:05:20.350Z,13.63
2019-01-19T00:08:34.415Z,13.80
2019-01-19T00:11:45.781Z,13.37
2019-01-19T00:14:53.513Z,14.20
2019-01-19T00:17:50.495Z,12.73
2019-01-19T00:20:51.644Z,12.07
2019-01-19T00:23:57.818Z,11.90
2019-01-19T00:27:22.341Z,12.70
2019-01-19T00:30:36.793Z,12.73
2019-01-19T00:33:40.875Z,13.33
2019-01-19T00:36:26.776Z,13.97
2019-01-19T00:39:49.524Z,15.40
2019-01-19T00:42:38.280Z,15.07
2019-01-19T00:46:00.910Z,16.07
2019-01-19T00:48:43.396Z,16.42
2019-01-19T00:51:57.519Z,16.03
2019-01-19T00:54:44.165Z,16.63
2019-01-19T00:57:29.476Z,22.48
2019-01-19T01:00:05.091Z,21.77
2019-01-19T01:03:21.444Z,20.67
2019-01-19T01:06:45.758Z,15.60
2019-01-19T01:10:08.066Z,16.75
2019-01-19T01:13:17.143Z,16.73
2019-01-19T01:15:57.169Z,23.90
2019-01-19T01:19:15.475Z,20.43
2019-01-19T01:22:04.084Z,21.93
2019-01-19T01:25:01.123Z,23.57
2019-01-19T01:28:17.616Z,21.63
2019-01-19T01:31:08.061Z,17.27
2019-01-19T01:34:20.165Z,17.00
2019-01-19T01:36:58.997Z,18.97
2019-01-19T01:39:54.179Z,21.90
2019-01-19T01:43:24.472Z,22.73
2019-01-19T01:46:21.078Z,23.33
2019-01-19T01:49:33.852Z,19.77
2019-01-19T01:52:49.054Z,17.30
2019-01-19T01:55:46.817Z,16.67
2019-01-19T01:58:46.361Z,17.37
2019-01-19T02:01:45.891Z,15.98
2019-01-19T02:05:05.844Z,15.50
2019-01-19T02:08:07.430Z,13.95
2019-01-19T02:11:00.468Z,12.77
2019-01-19T02:14:12.155Z,13.10
2019-01-19T02:17:17.132Z,13.67
2019-01-19T02:20:33.703Z,14.33
2019-01-19T02:23:28.892Z,14.30
2019-01-19T02:26:35.956Z,14.47
2019-01-19T02:29:48.226Z,14.50
2019-01-19T02:33:02.509Z,14.23
2019-01-19T02:36:01.571Z,13.43
2019-01-19T02:38:53.217Z,13.40
2019-01-19T02:42:20.720Z,13.13
2019-01-19T02:45:18.138Z,12.93
2019-01-19T02:48:24.161Z,11.77
2019-01-19T02:51:03.549Z,11.90
2019-01-19T02:54:33.632Z,11.50
2019-01-19T02:58:03.083Z,12.23
2019-01-19T03:01:16.869Z,11.90
2019-01-19T03:04:17.196Z,13.30
2019-01-19T03:07:12.472Z,12.33
2019-01-19T03:10:17.653Z,11.13
2019-01-19T03:13:13.655Z,10.10
2019-01-19T03:16:14.152Z,10.83
2019-01-19T03:19:44.335Z,14.60
2019-01-19T03:23:01.025Z,12.27
2019-01-19T03:26:06.598Z,11.40
2019-01-19T03:29:01.069Z,11.33
2019-01-19T03:32:12.066Z,11.83
2019-01-19T03:35:14.401Z,10.90
2019-01-19T03:38:34.820Z,8.40
2019-01-19T03:41:46.447Z,9.60
2019-01-19T03:44:57.670Z,10.55
2019-01-19T03:48:05.840Z,10.70
2019-01-19T03:51:18.514Z,10.17
2019-01-19T03:54:24.454Z,9.37
2019-01-19T03:57:23.545Z,9.87
2019-01-19T04:00:33.909Z,8.60
2019-01-19T04:04:02.493Z,9.77
2019-01-19T04:06:56.325Z,10.43
2019-01-19T04:09:51.579Z,10.37
2019-01-19T04:13:02.780Z,10.77
2019-01-19T04:16:13.968Z,10.37
2019-01-19T04:19:22.287Z,11.43
2019-01-19T04:22:23.242Z,11.20
2019-01-19T04:25:22.069Z,13.87
2019-01-19T04:27:53.266Z,12.37
2019-01-19T04:30:24.563Z,12.30
2019-01-19T04:32:55.712Z,19.77
2019-01-19T04:35:27.031Z,19.53
2019-01-19T04:37:58.639Z,16.00
2019-01-19T04:40:29.761Z,22.37
2019-01-19T04:43:03.449Z,14.03
2019-01-19T04:45:34.769Z,13.37
2019-01-19T04:48:06.176Z,14.85
2019-01-19T04:50:37.450Z,16.37
2019-01-19T04:53:08.590Z,18.43
2019-01-19T04:55:40.131Z,16.33
2019-01-19T04:58:11.591Z,13.10
2019-01-19T05:00:43.111Z,14.90
2019-01-19T05:03:14.280Z,15.13
2019-01-19T05:05:45.390Z,14.20
2019-01-19T05:08:16.477Z,14.40
2019-01-19T05:10:47.580Z,15.53
2019-01-19T05:13:19.512Z,24.57
2019-01-19T05:15:50.787Z,27.83
2019-01-19T05:18:24.899Z,28.02
2019-01-19T05:20:56.292Z,28.20
2019-01-19T05:23:28.002Z,28.67
2019-01-19T05:25:59.810Z,28.10
2019-01-19T05:28:31.097Z,26.93
2019-01-19T05:31:02.797Z,27.20
2019-01-19T05:33:34.102Z,26.03
2019-01-19T05:36:06.459Z,27.27
2019-01-19T05:38:37.523Z,28.33
2019-01-19T05:41:08.703Z,27.30
2019-01-19T05:43:39.885Z,25.93
2019-01-19T05:46:11.017Z,26.37
2019-01-19T05:48:42.270Z,26.13
2019-01-19T05:51:13.399Z,26.80
2019-01-19T05:53:44.501Z,26.50
2019-01-19T05:56:15.739Z,24.80
2019-01-19T05:58:46.819Z,23.22
2019-01-19T06:01:17.937Z,23.55
2019-01-19T06:03:50.039Z,25.23
2019-01-19T06:06:21.611Z,25.77
2019-01-19T06:08:52.694Z,25.77
2019-01-19T06:11:24.049Z,26.63
2019-01-19T06:13:55.280Z,26.17
2019-01-19T06:16:26.495Z,27.33
2019-01-19T06:18:59.063Z,28.57
2019-01-19T06:21:33.685Z,26.20
2019-01-19T06:24:05.050Z,25.92
2019-01-19T06:26:36.472Z,26.33
2019-01-19T06:29:07.766Z,29.47
2019-01-19T06:31:39.054Z,31.73
2019-01-19T06:34:10.399Z,32.73
2019-01-19T06:36:41.882Z,32.33
2019-01-19T06:39:13.425Z,32.70
2019-01-19T06:41:44.653Z,32.47
2019-01-19T06:44:15.677Z,29.92
2019-01-19T06:46:46.962Z,27.27
2019-01-19T06:49:17.954Z,27.87
2019-01-19T06:51:49.214Z,28.33
2019-01-19T06:54:20.894Z,30.93
2019-01-19T06:56:52.026Z,31.30
2019-01-19T06:59:23.216Z,30.08
2019-01-19T07:01:54.379Z,31.50
2019-01-19T07:04:25.590Z,30.47
2019-01-19T07:07:02.594Z,33.73
2019-01-19T07:09:31.510Z,34.40
2019-01-19T07:12:03.430Z,29.53
2019-01-19T07:14:34.674Z,30.03
2019-01-19T07:17:06.579Z,31.70
2019-01-19T07:19:39.099Z,30.23
2019-01-19T07:22:10.529Z,28.13
2019-01-19T07:24:41.755Z,27.80
2019-01-19T07:27:12.991Z,29.40
2019-01-19T07:29:44.169Z,29.10
2019-01-19T07:32:15.666Z,31.03
2019-01-19T07:34:46.765Z,28.80
2019-01-19T07:37:17.923Z,31.75
2019-01-19T07:39:50.477Z,29.03
2019-01-19T07:42:22.954Z,29.45
2019-01-19T07:44:54.203Z,29.30
2019-01-19T07:47:26.271Z,26.17
2019-01-19T07:49:57.842Z,26.93
2019-01-19T07:52:28.837Z,27.32
2019-01-19T07:55:00.036Z,28.03
2019-01-19T07:57:31.558Z,23.80
2019-01-19T08:00:02.785Z,25.60
2019-01-19T08:02:34.252Z,23.43
2019-01-19T08:05:06.564Z,27.67
2019-01-19T08:07:37.767Z,23.18
2019-01-19T08:10:10.880Z,22.23
2019-01-19T08:12:42.239Z,22.63
2019-01-19T08:15:16.298Z,27.98
2019-01-19T08:17:48.233Z,28.03
2019-01-19T08:20:19.778Z,32.63
2019-01-19T08:22:52.095Z,30.75
2019-01-19T08:25:23.341Z,28.67
2019-01-19T08:27:54.682Z,24.90
2019-01-19T08:30:28.238Z,23.77
2019-01-19T08:33:00.566Z,25.63
2019-01-19T08:35:32.358Z,24.93
2019-01-19T08:38:03.761Z,24.53
2019-01-19T08:40:36.777Z,24.57
2019-01-19T08:43:14.392Z,23.83
2019-01-19T08:45:45.784Z,22.87
2019-01-19T08:48:17.204Z,23.90
2019-01-19T08:50:48.489Z,24.63
2019-01-19T08:53:21.908Z,25.52
2019-01-19T08:55:53.267Z,26.00
2019-01-19T08:58:24.763Z,25.57
2019-01-19T09:00:55.927Z,25.00
2019-01-19T09:03:29.691Z,24.40
2019-01-19T09:06:00.798Z,23.87
2019-01-19T09:08:34.258Z,22.75
2019-01-19T09:11:06.120Z,23.10
2019-01-19T09:13:37.837Z,26.77
2019-01-19T09:16:14.303Z,22.20
2019-01-19T09:18:45.685Z,23.07
2019-01-19T09:21:16.950Z,24.57
2019-01-19T09:24:07.256Z,24.20
2019-01-19T09:26:38.546Z,23.40
2019-01-19T09:29:10.778Z,21.80
2019-01-19T09:31:41.914Z,19.97
2019-01-19T09:34:13.095Z,18.13
2019-01-19T09:36:45.550Z,17.73
2019-01-19T09:39:17.065Z,16.47
2019-01-19T09:41:48.106Z,18.17
2019-01-19T09:44:19.624Z,17.20
2019-01-19T09:46:50.906Z,16.60
2019-01-19T09:49:22.142Z,17.30
2019-01-19T09:51:53.530Z,16.87
2019-01-19T09:54:25.398Z,16.37
2019-01-19T09:56:56.769Z,16.70
2019-01-19T09:59:27.939Z,15.47
2019-01-19T10:01:59.225Z,16.83
2019-01-19T10:04:31.108Z,14.63
2019-01-19T10:07:02.340Z,15.30
2019-01-19T10:09:33.410Z,15.87
2019-01-19T10:12:06.096Z,16.60
2019-01-19T10:14:37.815Z,16.30
2019-01-19T10:17:08.933Z,14.20
2019-01-19T10:19:40.025Z,14.63
2019-01-19T10:22:11.130Z,12.90
2019-01-19T10:24:42.566Z,14.23
2019-01-19T10:27:13.781Z,14.00
2019-01-19T10:29:45.024Z,14.13
2019-01-19T10:32:16.965Z,13.13
2019-01-19T10:34:48.733Z,12.40
2019-01-19T10:37:20.065Z,13.10
2019-01-19T10:39:51.445Z,13.40
2019-01-19T10:42:22.864Z,12.63
2019-01-19T10:44:55.351Z,12.50
2019-01-19T10:47:27.450Z,12.57
2019-01-19T10:49:58.678Z,12.77
2019-01-19T10:52:31.134Z,12.80
2019-01-19T10:55:02.536Z,12.73
2019-01-19T10:57:33.547Z,12.40
2019-01-19T11:00:06.459Z,11.10
2019-01-19T11:02:37.775Z,11.90
2019-01-19T11:05:11.214Z,11.50
2019-01-19T11:07:44.296Z,11.03
2019-01-19T11:10:20.686Z,11.80
2019-01-19T11:12:51.873Z,11.00
2019-01-19T11:15:23.572Z,11.75
2019-01-19T11:17:54.913Z,12.57
2019-01-19T11:20:27.741Z,11.67
2019-01-19T11:23:00.221Z,11.50
2019-01-19T11:25:31.758Z,11.70
2019-01-19T11:28:04.018Z,11.03
2019-01-19T11:30:35.187Z,11.10
2019-01-19T11:33:06.434Z,11.57
2019-01-19T11:35:38.510Z,11.00
2019-01-19T11:38:12.124Z,10.60
2019-01-19T11:40:42.661Z,10.67
2019-01-19T11:43:14.021Z,10.70
2019-01-19T11:45:46.202Z,10.97
2019-01-19T11:48:17.334Z,11.47
2019-01-19T11:50:48.538Z,11.90
2019-01-19T11:53:19.939Z,11.77
2019-01-19T11:55:51.177Z,12.25
2019-01-19T11:58:23.595Z,12.03
2019-01-19T12:00:55.054Z,11.07
2019-01-19T12:03:26.521Z,12.97
2019-01-19T12:05:57.749Z,11.73
2019-01-19T12:08:30.664Z,12.63
2019-01-19T12:11:02.024Z,13.83
2019-01-19T12:13:33.134Z,12.80
2019-01-19T12:16:05.087Z,12.77
2019-01-19T12:18:36.461Z,13.53
2019-01-19T12:21:07.556Z,13.53
2019-01-19T12:23:38.980Z,11.75
2019-01-19T12:26:10.170Z,12.40
2019-01-19T12:28:41.462Z,12.40
2019-01-19T12:31:14.038Z,12.05
2019-01-19T12:33:45.243Z,11.77
2019-01-19T12:36:16.501Z,10.85
2019-01-19T12:38:47.799Z,11.33
2019-01-19T12:41:19.031Z,13.28
2019-01-19T12:43:50.588Z,13.43
2019-01-19T12:46:22.311Z,13.90
2019-01-19T12:48:53.394Z,13.10
2019-01-19T12:51:24.807Z,13.67
2019-01-19T12:53:55.871Z,13.57
2019-01-19T12:56:27.061Z,12.83
2019-01-19T12:58:58.443Z,13.83
2019-01-19T13:01:29.959Z,13.70
2019-01-19T13:04:01.264Z,13.40
2019-01-19T13:06:49.798Z,14.00
2019-01-19T13:09:24.376Z,14.35
2019-01-19T13:12:25.755Z,14.23
2019-01-19T13:15:23.834Z,14.35
2019-01-19T13:18:33.004Z,14.93
2019-01-19T13:21:36.893Z,15.00
2019-01-19T13:25:13.244Z,15.80
2019-01-19T13:28:38.789Z,16.83
2019-01-19T13:31:41.241Z,15.50
2019-01-19T13:34:49.496Z,16.30
2019-01-19T13:37:43.475Z,15.23
2019-01-19T13:40:47.348Z,15.27
2019-01-19T13:44:05.024Z,14.80
2019-01-19T13:47:06.876Z,14.40
2019-01-19T13:50:14.941Z,15.10
2019-01-19T13:53:10.754Z,16.20
2019-01-19T13:56:06.954Z,15.23
2019-01-19T13:58:47.734Z,16.67
2019-01-19T14:01:53.212Z,17.33
2019-01-19T14:05:05.328Z,16.47
2019-01-19T14:08:27.554Z,17.10
2019-01-19T14:11:51.252Z,16.77
2019-01-19T14:15:06.386Z,18.07
2019-01-19T14:18:21.557Z,17.30
2019-01-19T14:21:31.812Z,17.63
2019-01-19T14:24:58.820Z,19.20
2019-01-19T14:27:47.782Z,18.27
2019-01-19T14:30:39.389Z,18.37
2019-01-19T14:34:03.521Z,17.43
2019-01-19T14:37:15.647Z,18.33
2019-01-19T14:40:43.801Z,18.48
2019-01-19T14:43:55.051Z,17.32
2019-01-19T14:47:02.022Z,17.20
2019-01-19T14:49:58.198Z,17.53
2019-01-19T14:53:04.777Z,17.83
2019-01-19T14:56:26.350Z,17.50
2019-01-19T14:59:44.492Z,17.67
2019-01-19T15:02:47.194Z,17.90
2019-01-19T15:05:55.691Z,20.23
2019-01-19T15:08:46.815Z,20.53
2019-01-19T15:11:54.434Z,19.90
2019-01-19T15:14:51.401Z,24.83
2019-01-19T15:17:51.939Z,25.43
2019-01-19T15:21:08.861Z,26.07
2019-01-19T15:24:20.834Z,38.17
2019-01-19T15:27:28.894Z,36.07
2019-01-19T15:30:39.991Z,40.43
2019-01-19T15:33:44.686Z,44.08
2019-01-19T15:36:54.807Z,44.77
2019-01-19T15:40:00.649Z,43.30
2019-01-19T15:42:57.745Z,42.73
2019-01-19T15:45:57.407Z,42.60
2019-01-19T15:48:58.715Z,40.03
2019-01-19T15:52:19.767Z,42.27
2019-01-19T15:55:49.911Z,39.00
2019-01-19T15:58:52.409Z,43.92
2019-01-19T16:02:07.004Z,40.45
2019-01-19T16:05:09.156Z,41.07
2019-01-19T16:08:09.007Z,44.20
2019-01-19T16:11:06.090Z,49.30
2019-01-19T16:14:19.715Z,53.67
2019-01-19T16:17:25.254Z,62.83
2019-01-19T16:20:33.145Z,63.37
2019-01-19T16:23:36.784Z,60.77
2019-01-19T16:26:25.046Z,58.83
2019-01-19T16:29:29.459Z,58.90
2019-01-19T16:32:40.863Z,57.63
2019-01-19T16:35:50.377Z,63.23
2019-01-19T16:39:00.697Z,62.20
2019-01-19T16:42:00.783Z,63.77
2019-01-19T16:45:28.037Z,62.03
2019-01-19T16:48:39.915Z,61.33
2019-01-19T16:52:00.717Z,67.12
2019-01-19T16:55:07.599Z,64.65
2019-01-19T16:58:26.034Z,64.50
2019-01-19T17:01:31.613Z,67.10
2019-01-19T17:04:48.344Z,66.67
2019-01-19T17:07:31.912Z,73.90
2019-01-19T17:10:22.412Z,67.80
2019-01-19T17:13:31.245Z,69.17
2019-01-19T17:16:51.822Z,67.67
2019-01-19T17:20:09.925Z,74.80
2019-01-19T17:22:59.299Z,70.87
2019-01-19T17:26:35.681Z,69.87
2019-01-19T17:29:35.253Z,72.00
2019-01-19T17:32:29.553Z,65.30
2019-01-19T17:35:43.146Z,65.80
2019-01-19T17:38:54.556Z,62.53
2019-01-19T17:41:53.499Z,59.20
2019-01-19T17:44:59.617Z,64.67
2019-01-19T17:48:02.491Z,62.33
2019-01-19T17:51:11.208Z,74.10
2019-01-19T17:54:29.157Z,74.63
2019-01-19T17:57:34.470Z,79.20
2019-01-19T18:00:36.297Z,78.97
2019-01-19T18:03:42.193Z,84.13
2019-01-19T18:06:35.368Z,83.30
2019-01-19T18:09:59.286Z,85.33
2019-01-19T18:13:06.899Z,89.17
2019-01-19T18:16:09.235Z,90.67
2019-01-19T18:19:16.699Z,87.00
2019-01-19T18:22:50.236Z,89.07
2019-01-19T18:25:51.976Z,81.65
2019-01-19T18:28:46.288Z,81.17
2019-01-19T18:31:57.196Z,81.73
2019-01-19T18:34:58.739Z,79.37
2019-01-19T18:38:05.873Z,76.87
2019-01-19T18:41:09.480Z,81.73
2019-01-19T18:44:13.859Z,87.03
2019-01-19T18:47:15.379Z,81.33
2019-01-19T18:50:12.073Z,85.33
2019-01-19T18:53:09.149Z,84.70
2019-01-19T18:56:14.548Z,88.50
2019-01-19T18:59:28.839Z,86.30
2019-01-19T19:02:30.937Z,86.12
2019-01-19T19:05:18.992Z,87.63
2019-01-19T19:08:10.803Z,84.67
2019-01-19T19:11:31.584Z,86.17
2019-01-19T19:14:30.236Z,88.80
2019-01-19T19:18:00.206Z,91.50
2019-01-19T19:21:02.617Z,93.70
2019-01-19T19:24:26.611Z,90.97
2019-01-19T19:27:41.027Z,93.03
2019-01-19T19:30:47.957Z,93.90
2019-01-19T19:33:55.998Z,98.83
2019-01-19T19:37:23.512Z,98.60
2019-01-19T19:40:20.755Z,94.77
2019-01-19T19:43:13.854Z,97.90
2019-01-19T19:46:20.901Z,97.47
2019-01-19T19:49:28.927Z,95.17
2019-01-19T19:52:07.155Z,101.80
2019-01-19T19:54:38.271Z,99.80
2019-01-19T19:57:09.493Z,101.80
2019-01-19T19:59:40.615Z,101.93
2019-01-19T20:02:11.893Z,105.30
2019-01-19T20:04:43.484Z,102.63
2019-01-19T20:07:14.918Z,103.30
2019-01-19T20:09:46.201Z,103.43
2019-01-19T20:12:17.706Z,104.03
2019-01-19T20:14:49.040Z,101.90
2019-01-19T20:17:20.241Z,101.62
2019-01-19T20:19:53.270Z,103.47
2019-01-19T20:22:25.053Z,102.50
2019-01-19T20:24:56.219Z,103.00
2019-01-19T20:27:27.527Z,104.47
2019-01-19T20:29:58.866Z,103.17
2019-01-19T20:32:30.190Z,103.10
2019-01-19T20:35:01.722Z,110.30
2019-01-19T20:37:32.826Z,102.40
2019-01-19T20:40:04.551Z,101.85
2019-01-19T20:42:35.847Z,106.53
2019-01-19T20:45:10.045Z,104.50
2019-01-19T20:47:41.392Z,103.27
2019-01-19T20:50:12.792Z,104.30
2019-01-19T20:52:45.292Z,99.37
2019-01-19T20:55:16.581Z,104.05
2019-01-19T20:57:47.848Z,101.55
2019-01-19T21:00:19.575Z,103.72
2019-01-19T21:02:50.723Z,100.93
2019-01-19T21:05:22.335Z,102.58
2019-01-19T21:07:53.547Z,99.17
2019-01-19T21:10:31.521Z,106.20
2019-01-19T21:12:57.934Z,102.37
2019-01-19T21:15:29.135Z,114.03
2019-01-19T21:18:00.384Z,107.10
2019-01-19T21:20:31.703Z,107.92
2019-01-19T21:23:03.268Z,109.03
2019-01-19T21:25:35.551Z,105.97
2019-01-19T21:28:06.597Z,102.80
2019-01-19T21:30:37.868Z,107.07
2019-01-19T21:33:10.054Z,105.63
2019-01-19T21:35:43.106Z,102.93
2019-01-19T21:38:14.526Z,101.45
2019-01-19T21:40:45.614Z,107.30
2019-01-19T21:43:17.295Z,108.67
2019-01-19T21:45:48.704Z,105.10
2019-01-19T21:48:19.955Z,100.62
2019-01-19T21:50:51.288Z,97.67
2019-01-19T21:53:22.522Z,100.13
2019-01-19T21:55:54.206Z,100.20
2019-01-19T21:58:25.209Z,106.27
2019-01-19T22:00:57.797Z,101.77
2019-01-19T22:03:28.857Z,110.47
2019-01-19T22:06:00.378Z,102.93
2019-01-19T22:08:33.911Z,99.27
2019-01-19T22:11:07.658Z,101.35
2019-01-19T22:13:39.625Z,100.97
2019-01-19T22:16:11.505Z,102.20
2019-01-19T22:18:42.881Z,103.37
2019-01-19T22:21:15.507Z,104.53
2019-01-19T22:23:46.633Z,104.10
2019-01-19T22:26:20.486Z,105.20
2019-01-19T22:28:52.081Z,107.93
2019-01-19T22:31:23.369Z,108.60
2019-01-19T22:33:54.493Z,113.07
2019-01-19T22:36:26.117Z,109.40
2019-01-19T22:38:57.407Z,106.47
2019-01-19T22:41:28.769Z,102.33
2019-01-19T22:44:00.412Z,103.23
2019-01-19T22:46:31.887Z,106.57
2019-01-19T22:49:03.717Z,104.33
2019-01-19T22:51:36.048Z,106.80
2019-01-19T22:54:07.229Z,104.87
2019-01-19T22:56:38.768Z,108.37
2019-01-19T22:59:09.960Z,105.77
2019-01-19T23:02:01.685Z,102.53
2019-01-19T23:04:33.202Z,100.93
2019-01-19T23:07:06.290Z,97.67
2019-01-19T23:09:37.303Z,97.20
2019-01-19T23:12:08.704Z,103.30
2019-01-19T23:14:40.938Z,98.90
2019-01-19T23:17:12.387Z,98.25
2019-01-19T23:19:43.703Z,105.33
2019-01-19T23:22:14.963Z,100.27
2019-01-19T23:24:46.061Z,99.63
2019-01-19T23:27:17.292Z,94.77
2019-01-19T23:29:50.162Z,95.50
2019-01-19T23:32:22.136Z,97.12
2019-01-19T23:34:54.300Z,94.87
2019-01-19T23:37:25.783Z,96.27
2019-01-19T23:39:58.016Z,96.67
2019-01-19T23:42:29.075Z,97.07
2019-01-19T23:45:00.256Z,99.07
2019-01-19T23:47:31.385Z,97.23
2019-01-19T23:50:02.659Z,100.57
2019-01-19T23:52:34.448Z,97.33
2019-01-19T23:55:06.353Z,103.85
2019-01-19T23:57:38.861Z,108.90
